sensor_id;sensor_type;location;lat;lon;timestamp;temperature;humidity
52963;DHT22;38827;53.024;6.596;2024-02-21T00:02:24;9.80;83.70
52963;DHT22;38827;53.024;6.596;2024-02-21T00:04:53;9.80;83.80
52963;DHT22;38827;53.024;6.596;2024-02-21T00:07:31;9.80;83.90
52963;DHT22;38827;53.024;6.596;2024-02-21T00:09:57;9.80;83.60
52963;DHT22;38827;53.024;6.596;2024-02-21T00:12:26;9.80;83.80
52963;DHT22;38827;53.024;6.596;2024-02-21T00:15:01;9.80;84.00
52963;DHT22;38827;53.024;6.596;2024-02-21T00:17:32;9.80;83.80
52963;DHT22;38827;53.024;6.596;2024-02-21T00:20:07;9.80;83.90
52963;DHT22;38827;53.024;6.596;2024-02-21T00:22:49;9.80;84.10
52963;DHT22;38827;53.024;6.596;2024-02-21T00:25:27;9.80;84.00
52963;DHT22;38827;53.024;6.596;2024-02-21T00:27:52;9.80;84.10
52963;DHT22;38827;53.024;6.596;2024-02-21T00:30:41;9.70;84.20
52963;DHT22;38827;53.024;6.596;2024-02-21T00:33:13;9.70;84.00
52963;DHT22;38827;53.024;6.596;2024-02-21T00:35:54;9.80;84.30
52963;DHT22;38827;53.024;6.596;2024-02-21T00:38:20;9.70;84.10
52963;DHT22;38827;53.024;6.596;2024-02-21T00:40:52;9.70;84.40
52963;DHT22;38827;53.024;6.596;2024-02-21T00:43:21;9.80;84.30
52963;DHT22;38827;53.024;6.596;2024-02-21T00:45:49;9.70;84.40
52963;DHT22;38827;53.024;6.596;2024-02-21T00:48:18;9.70;84.30
52963;DHT22;38827;53.024;6.596;2024-02-21T00:50:50;9.70;84.40
52963;DHT22;38827;53.024;6.596;2024-02-21T00:53:28;9.70;84.50
52963;DHT22;38827;53.024;6.596;2024-02-21T00:55:57;9.70;84.40
52963;DHT22;38827;53.024;6.596;2024-02-21T00:58:25;9.70;84.60
52963;DHT22;38827;53.024;6.596;2024-02-21T01:00:55;9.70;84.80
52963;DHT22;38827;53.024;6.596;2024-02-21T01:03:45;9.70;84.90
52963;DHT22;38827;53.024;6.596;2024-02-21T01:06:23;9.70;85.00
52963;DHT22;38827;53.024;6.596;2024-02-21T01:08:51;9.70;85.10
52963;DHT22;38827;53.024;6.596;2024-02-21T01:11:29;9.70;85.40
52963;DHT22;38827;53.024;6.596;2024-02-21T01:14:30;9.60;85.50
52963;DHT22;38827;53.024;6.596;2024-02-21T01:16:59;9.60;85.50
52963;DHT22;38827;53.024;6.596;2024-02-21T01:19:30;9.60;85.80
52963;DHT22;38827;53.024;6.596;2024-02-21T01:21:56;9.60;85.90
52963;DHT22;38827;53.024;6.596;2024-02-21T01:24:39;9.60;85.90
52963;DHT22;38827;53.024;6.596;2024-02-21T01:27:17;9.60;85.70
52963;DHT22;38827;53.024;6.596;2024-02-21T01:30:01;9.60;85.80
52963;DHT22;38827;53.024;6.596;2024-02-21T01:32:27;9.50;86.00
52963;DHT22;38827;53.024;6.596;2024-02-21T01:49:09;9.40;86.90
52963;DHT22;38827;53.024;6.596;2024-02-21T01:51:47;9.40;87.50
52963;DHT22;38827;53.024;6.596;2024-02-21T01:54:17;9.40;87.60
52963;DHT22;38827;53.024;6.596;2024-02-21T01:57:25;9.30;87.80
52963;DHT22;38827;53.024;6.596;2024-02-21T01:59:57;9.30;88.30
52963;DHT22;38827;53.024;6.596;2024-02-21T02:02:26;9.30;88.50
52963;DHT22;38827;53.024;6.596;2024-02-21T02:05:26;9.20;88.80
52963;DHT22;38827;53.024;6.596;2024-02-21T02:07:55;9.20;89.30
52963;DHT22;38827;53.024;6.596;2024-02-21T02:10:26;9.20;89.50
52963;DHT22;38827;53.024;6.596;2024-02-21T02:12:52;9.20;89.80
52963;DHT22;38827;53.024;6.596;2024-02-21T02:15:24;9.10;90.10
52963;DHT22;38827;53.024;6.596;2024-02-21T02:17:52;9.10;90.20
52963;DHT22;38827;53.024;6.596;2024-02-21T02:20:18;9.10;90.50
52963;DHT22;38827;53.024;6.596;2024-02-21T02:22:50;9.10;90.80
52963;DHT22;38827;53.024;6.596;2024-02-21T02:25:15;9.10;91.00
52963;DHT22;38827;53.024;6.596;2024-02-21T02:28:00;9.10;91.20
52963;DHT22;38827;53.024;6.596;2024-02-21T02:30:35;9.10;91.10
52963;DHT22;38827;53.024;6.596;2024-02-21T02:33:07;9.00;91.30
52963;DHT22;38827;53.024;6.596;2024-02-21T02:35:36;9.00;91.50
52963;DHT22;38827;53.024;6.596;2024-02-21T02:38:07;9.10;91.60
52963;DHT22;38827;53.024;6.596;2024-02-21T02:40:37;9.00;91.70
52963;DHT22;38827;53.024;6.596;2024-02-21T02:43:30;9.00;91.80
52963;DHT22;38827;53.024;6.596;2024-02-21T02:46:12;9.00;91.90
52963;DHT22;38827;53.024;6.596;2024-02-21T02:48:44;9.00;91.90
52963;DHT22;38827;53.024;6.596;2024-02-21T02:51:13;9.00;92.10
52963;DHT22;38827;53.024;6.596;2024-02-21T02:53:45;9.00;92.20
52963;DHT22;38827;53.024;6.596;2024-02-21T02:56:16;9.00;92.10
52963;DHT22;38827;53.024;6.596;2024-02-21T02:58:48;9.00;92.10
52963;DHT22;38827;53.024;6.596;2024-02-21T03:01:20;9.00;92.20
52963;DHT22;38827;53.024;6.596;2024-02-21T03:03:54;9.00;92.20
52963;DHT22;38827;53.024;6.596;2024-02-21T03:06:45;9.00;92.10
52963;DHT22;38827;53.024;6.596;2024-02-21T03:09:17;9.00;92.20
52963;DHT22;38827;53.024;6.596;2024-02-21T03:11:46;9.00;92.50
52963;DHT22;38827;53.024;6.596;2024-02-21T03:14:14;9.00;92.70
52963;DHT22;38827;53.024;6.596;2024-02-21T03:16:40;9.00;92.60
52963;DHT22;38827;53.024;6.596;2024-02-21T03:19:09;9.00;92.80
52963;DHT22;38827;53.024;6.596;2024-02-21T03:21:43;9.00;92.70
52963;DHT22;38827;53.024;6.596;2024-02-21T03:24:09;9.00;92.80
52963;DHT22;38827;53.024;6.596;2024-02-21T03:26:35;9.00;93.00
52963;DHT22;38827;53.024;6.596;2024-02-21T03:29:00;9.00;92.90
52963;DHT22;38827;53.024;6.596;2024-02-21T03:31:44;9.00;92.90
52963;DHT22;38827;53.024;6.596;2024-02-21T03:34:17;9.00;92.80
52963;DHT22;38827;53.024;6.596;2024-02-21T03:39:42;9.00;92.90
52963;DHT22;38827;53.024;6.596;2024-02-21T03:42:21;9.00;93.40
52963;DHT22;38827;53.024;6.596;2024-02-21T03:44:49;9.00;93.10
52963;DHT22;38827;53.024;6.596;2024-02-21T03:47:21;9.00;93.20
52963;DHT22;38827;53.024;6.596;2024-02-21T03:49:50;9.00;92.90
52963;DHT22;38827;53.024;6.596;2024-02-21T03:52:15;9.00;92.90
52963;DHT22;38827;53.024;6.596;2024-02-21T03:57:40;9.00;93.00
52963;DHT22;38827;53.024;6.596;2024-02-21T04:00:09;9.00;93.00
52963;DHT22;38827;53.024;6.596;2024-02-21T04:02:36;9.00;93.10
52963;DHT22;38827;53.024;6.596;2024-02-21T04:05:05;9.00;93.20
52963;DHT22;38827;53.024;6.596;2024-02-21T04:07:56;9.00;93.30
52963;DHT22;38827;53.024;6.596;2024-02-21T04:10:29;9.00;93.20
52963;DHT22;38827;53.024;6.596;2024-02-21T04:13:13;9.00;93.40
52963;DHT22;38827;53.024;6.596;2024-02-21T04:15:42;9.00;93.50
52963;DHT22;38827;53.024;6.596;2024-02-21T04:18:08;9.00;93.60
52963;DHT22;38827;53.024;6.596;2024-02-21T04:20:52;9.00;93.70
52963;DHT22;38827;53.024;6.596;2024-02-21T04:23:36;9.00;93.60
52963;DHT22;38827;53.024;6.596;2024-02-21T04:26:11;9.00;93.50
52963;DHT22;38827;53.024;6.596;2024-02-21T04:28:36;9.00;93.70
52963;DHT22;38827;53.024;6.596;2024-02-21T04:31:11;9.00;93.80
52963;DHT22;38827;53.024;6.596;2024-02-21T04:33:49;9.00;93.70
52963;DHT22;38827;53.024;6.596;2024-02-21T04:36:20;9.10;93.70
52963;DHT22;38827;53.024;6.596;2024-02-21T04:38:49;9.00;93.60
52963;DHT22;38827;53.024;6.596;2024-02-21T04:41:18;9.10;93.60
52963;DHT22;38827;53.024;6.596;2024-02-21T04:43:46;9.10;93.70
52963;DHT22;38827;53.024;6.596;2024-02-21T04:48:38;9.10;93.80
52963;DHT22;38827;53.024;6.596;2024-02-21T04:51:06;9.10;93.90
52963;DHT22;38827;53.024;6.596;2024-02-21T04:53:47;9.10;93.80
52963;DHT22;38827;53.024;6.596;2024-02-21T04:56:25;9.10;93.70
52963;DHT22;38827;53.024;6.596;2024-02-21T04:58:50;9.10;93.80
52963;DHT22;38827;53.024;6.596;2024-02-21T05:01:17;9.10;93.80
52963;DHT22;38827;53.024;6.596;2024-02-21T05:04:04;9.10;93.80
52963;DHT22;38827;53.024;6.596;2024-02-21T05:06:40;9.10;93.80
52963;DHT22;38827;53.024;6.596;2024-02-21T05:09:24;9.10;93.80
52963;DHT22;38827;53.024;6.596;2024-02-21T05:12:05;9.10;93.90
52963;DHT22;38827;53.024;6.596;2024-02-21T05:14:37;9.10;93.80
52963;DHT22;38827;53.024;6.596;2024-02-21T05:17:06;9.10;93.90
52963;DHT22;38827;53.024;6.596;2024-02-21T05:19:31;9.10;93.90
52963;DHT22;38827;53.024;6.596;2024-02-21T05:21:59;9.10;93.90
52963;DHT22;38827;53.024;6.596;2024-02-21T05:24:24;9.10;93.90
52963;DHT22;38827;53.024;6.596;2024-02-21T05:27:08;9.10;94.00
52963;DHT22;38827;53.024;6.596;2024-02-21T05:29:37;9.10;93.80
52963;DHT22;38827;53.024;6.596;2024-02-21T05:32:07;9.10;93.90
52963;DHT22;38827;53.024;6.596;2024-02-21T05:34:36;9.10;93.90
52963;DHT22;38827;53.024;6.596;2024-02-21T05:37:08;9.10;93.90
52963;DHT22;38827;53.024;6.596;2024-02-21T05:39:42;9.20;93.70
52963;DHT22;38827;53.024;6.596;2024-02-21T05:42:34;9.10;93.60
52963;DHT22;38827;53.024;6.596;2024-02-21T05:45:08;9.10;93.60
52963;DHT22;38827;53.024;6.596;2024-02-21T05:47:44;9.10;93.50
52963;DHT22;38827;53.024;6.596;2024-02-21T05:50:10;9.10;93.40
52963;DHT22;38827;53.024;6.596;2024-02-21T05:52:35;9.10;93.40
52963;DHT22;38827;53.024;6.596;2024-02-21T05:55:10;9.10;93.30
52963;DHT22;38827;53.024;6.596;2024-02-21T05:57:45;9.10;93.50
52963;DHT22;38827;53.024;6.596;2024-02-21T06:00:23;9.10;93.50
52963;DHT22;38827;53.024;6.596;2024-02-21T06:02:58;9.10;93.40
52963;DHT22;38827;53.024;6.596;2024-02-21T06:05:24;9.10;93.40
52963;DHT22;38827;53.024;6.596;2024-02-21T06:07:49;9.10;93.40
52963;DHT22;38827;53.024;6.596;2024-02-21T06:10:30;9.10;93.20
52963;DHT22;38827;53.024;6.596;2024-02-21T06:12:59;9.10;93.10
52963;DHT22;38827;53.024;6.596;2024-02-21T06:15:33;9.10;93.20
52963;DHT22;38827;53.024;6.596;2024-02-21T06:18:30;9.10;93.30
52963;DHT22;38827;53.024;6.596;2024-02-21T06:21:17;9.10;93.00
52963;DHT22;38827;53.024;6.596;2024-02-21T06:26:47;9.10;93.20
52963;DHT22;38827;53.024;6.596;2024-02-21T06:29:27;9.10;93.20
52963;DHT22;38827;53.024;6.596;2024-02-21T06:32:08;9.10;93.10
52963;DHT22;38827;53.024;6.596;2024-02-21T06:35:26;9.10;93.00
52963;DHT22;38827;53.024;6.596;2024-02-21T06:37:52;9.10;93.10
52963;DHT22;38827;53.024;6.596;2024-02-21T06:44:47;9.10;92.90
52963;DHT22;38827;53.024;6.596;2024-02-21T06:51:01;9.10;93.10
52963;DHT22;38827;53.024;6.596;2024-02-21T06:58:13;9.10;92.90
52963;DHT22;38827;53.024;6.596;2024-02-21T07:04:18;9.20;93.20
52963;DHT22;38827;53.024;6.596;2024-02-21T07:07:18;9.20;93.10
52963;DHT22;38827;53.024;6.596;2024-02-21T07:15:31;9.20;93.20
52963;DHT22;38827;53.024;6.596;2024-02-21T07:24:03;9.20;93.10
52963;DHT22;38827;53.024;6.596;2024-02-21T07:34:02;9.20;93.10
52963;DHT22;38827;53.024;6.596;2024-02-21T07:36:47;9.20;93.40
52963;DHT22;38827;53.024;6.596;2024-02-21T08:02:17;9.30;92.40
52963;DHT22;38827;53.024;6.596;2024-02-21T08:48:31;9.30;90.40
52963;DHT22;38827;53.024;6.596;2024-02-21T08:58:15;9.40;90.00
52963;DHT22;38827;53.024;6.596;2024-02-21T09:00:47;9.40;90.30
52963;DHT22;38827;53.024;6.596;2024-02-21T09:05:48;9.40;90.00
52963;DHT22;38827;53.024;6.596;2024-02-21T09:20:40;9.40;89.30
52963;DHT22;38827;53.024;6.596;2024-02-21T09:30:46;9.40;89.20
52963;DHT22;38827;53.024;6.596;2024-02-21T11:26:36;10.70;80.80
52963;DHT22;38827;53.024;6.596;2024-02-21T11:32:44;10.60;80.60
52963;DHT22;38827;53.024;6.596;2024-02-21T11:37:48;10.50;80.70
52963;DHT22;38827;53.024;6.596;2024-02-21T11:40:29;10.50;80.60
52963;DHT22;38827;53.024;6.596;2024-02-21T11:45:49;10.50;80.50
52963;DHT22;38827;53.024;6.596;2024-02-21T11:48:27;10.50;80.10
52963;DHT22;38827;53.024;6.596;2024-02-21T11:54:17;10.50;80.30
52963;DHT22;38827;53.024;6.596;2024-02-21T11:56:43;10.40;79.50
52963;DHT22;38827;53.024;6.596;2024-02-21T11:59:15;10.40;80.30
52963;DHT22;38827;53.024;6.596;2024-02-21T12:01:52;10.50;79.90
52963;DHT22;38827;53.024;6.596;2024-02-21T12:04:48;10.50;79.70
52963;DHT22;38827;53.024;6.596;2024-02-21T12:07:36;10.50;79.60
52963;DHT22;38827;53.024;6.596;2024-02-21T12:10:11;10.40;79.30
52963;DHT22;38827;53.024;6.596;2024-02-21T12:13:22;10.40;79.80
52963;DHT22;38827;53.024;6.596;2024-02-21T12:15:55;10.40;79.70
52963;DHT22;38827;53.024;6.596;2024-02-21T12:18:21;10.40;79.90
52963;DHT22;38827;53.024;6.596;2024-02-21T12:20:59;10.40;80.00
52963;DHT22;38827;53.024;6.596;2024-02-21T12:35:39;10.50;79.40
52963;DHT22;38827;53.024;6.596;2024-02-21T12:38:17;10.50;78.90
52963;DHT22;38827;53.024;6.596;2024-02-21T12:41:12;10.60;79.20
52963;DHT22;38827;53.024;6.596;2024-02-21T12:56:05;10.60;78.80
52963;DHT22;38827;53.024;6.596;2024-02-21T12:59:05;10.60;78.20
52963;DHT22;38827;53.024;6.596;2024-02-21T13:05:32;10.40;78.20
52963;DHT22;38827;53.024;6.596;2024-02-21T13:07:58;10.40;77.60
52963;DHT22;38827;53.024;6.596;2024-02-21T13:10:24;10.40;78.00
52963;DHT22;38827;53.024;6.596;2024-02-21T13:18:31;10.50;77.20
52963;DHT22;38827;53.024;6.596;2024-02-21T13:21:25;10.60;76.90
52963;DHT22;38827;53.024;6.596;2024-02-21T13:24:35;10.70;76.60
52963;DHT22;38827;53.024;6.596;2024-02-21T13:27:03;10.70;76.70
52963;DHT22;38827;53.024;6.596;2024-02-21T13:29:29;10.70;76.60
52963;DHT22;38827;53.024;6.596;2024-02-21T13:32:10;10.80;76.60
52963;DHT22;38827;53.024;6.596;2024-02-21T13:34:54;10.90;76.00
52963;DHT22;38827;53.024;6.596;2024-02-21T13:40:48;10.90;74.80
52963;DHT22;38827;53.024;6.596;2024-02-21T13:45:57;10.80;75.90
52963;DHT22;38827;53.024;6.596;2024-02-21T13:52:20;10.90;75.10
52963;DHT22;38827;53.024;6.596;2024-02-21T13:55:17;10.90;75.20
52963;DHT22;38827;53.024;6.596;2024-02-21T13:57:58;10.80;75.20
52963;DHT22;38827;53.024;6.596;2024-02-21T14:00:52;10.80;75.40
52963;DHT22;38827;53.024;6.596;2024-02-21T14:03:23;10.70;75.70
52963;DHT22;38827;53.024;6.596;2024-02-21T14:05:51;10.60;76.20
52963;DHT22;38827;53.024;6.596;2024-02-21T14:08:16;10.60;76.40
52963;DHT22;38827;53.024;6.596;2024-02-21T14:10:45;10.60;76.30
52963;DHT22;38827;53.024;6.596;2024-02-21T14:13:11;10.50;76.40
52963;DHT22;38827;53.024;6.596;2024-02-21T14:15:37;10.40;76.50
52963;DHT22;38827;53.024;6.596;2024-02-21T14:18:09;10.40;76.60
52963;DHT22;38827;53.024;6.596;2024-02-21T14:20:40;10.40;76.70
52963;DHT22;38827;53.024;6.596;2024-02-21T14:23:09;10.40;76.50
52963;DHT22;38827;53.024;6.596;2024-02-21T14:25:35;10.30;76.60
52963;DHT22;38827;53.024;6.596;2024-02-21T14:28:00;10.30;76.50
52963;DHT22;38827;53.024;6.596;2024-02-21T14:30:45;10.30;76.60
52963;DHT22;38827;53.024;6.596;2024-02-21T14:33:19;10.20;76.70
52963;DHT22;38827;53.024;6.596;2024-02-21T14:35:51;10.20;77.00
52963;DHT22;38827;53.024;6.596;2024-02-21T14:38:42;10.20;76.90
52963;DHT22;38827;53.024;6.596;2024-02-21T14:41:36;10.10;76.80
52963;DHT22;38827;53.024;6.596;2024-02-21T14:44:02;10.10;77.00
52963;DHT22;38827;53.024;6.596;2024-02-21T14:46:32;10.10;77.40
52963;DHT22;38827;53.024;6.596;2024-02-21T14:51:38;10.10;77.00
52963;DHT22;38827;53.024;6.596;2024-02-21T14:54:07;10.10;77.30
52963;DHT22;38827;53.024;6.596;2024-02-21T14:56:42;10.00;77.20
52963;DHT22;38827;53.024;6.596;2024-02-21T14:59:24;10.00;77.10
52963;DHT22;38827;53.024;6.596;2024-02-21T15:01:51;10.00;77.10
52963;DHT22;38827;53.024;6.596;2024-02-21T15:04:27;10.00;77.40
52963;DHT22;38827;53.024;6.596;2024-02-21T15:06:59;9.90;76.80
52963;DHT22;38827;53.024;6.596;2024-02-21T15:09:28;9.90;77.60
52963;DHT22;38827;53.024;6.596;2024-02-21T15:11:54;9.90;77.80
52963;DHT22;38827;53.024;6.596;2024-02-21T15:15:10;9.90;77.90
52963;DHT22;38827;53.024;6.596;2024-02-21T15:17:36;9.90;77.80
52963;DHT22;38827;53.024;6.596;2024-02-21T15:20:17;9.90;78.00
52963;DHT22;38827;53.024;6.596;2024-02-21T15:23:02;9.90;77.80
52963;DHT22;38827;53.024;6.596;2024-02-21T15:25:33;9.90;77.70
52963;DHT22;38827;53.024;6.596;2024-02-21T15:28:05;9.90;77.90
52963;DHT22;38827;53.024;6.596;2024-02-21T15:30:49;9.90;77.80
52963;DHT22;38827;53.024;6.596;2024-02-21T15:39:54;9.80;77.70
52963;DHT22;38827;53.024;6.596;2024-02-21T15:42:30;9.80;77.90
52963;DHT22;38827;53.024;6.596;2024-02-21T15:45:16;9.80;77.90
52963;DHT22;38827;53.024;6.596;2024-02-21T16:05:26;9.80;78.50
52963;DHT22;38827;53.024;6.596;2024-02-21T16:08:02;9.70;78.60
52963;DHT22;38827;53.024;6.596;2024-02-21T16:10:30;9.80;78.70
52963;DHT22;38827;53.024;6.596;2024-02-21T16:13:15;9.70;78.90
52963;DHT22;38827;53.024;6.596;2024-02-21T16:15:41;9.70;78.80
52963;DHT22;38827;53.024;6.596;2024-02-21T16:34:04;9.50;80.10
52963;DHT22;38827;53.024;6.596;2024-02-21T16:49:36;9.40;81.70
52963;DHT22;38827;53.024;6.596;2024-02-21T16:52:35;9.30;81.80
52963;DHT22;38827;53.024;6.596;2024-02-21T16:57:34;9.30;82.30
52963;DHT22;38827;53.024;6.596;2024-02-21T17:00:18;9.20;82.30
52963;DHT22;38827;53.024;6.596;2024-02-21T17:03:03;9.20;82.60
52963;DHT22;38827;53.024;6.596;2024-02-21T17:05:30;9.20;82.80
52963;DHT22;38827;53.024;6.596;2024-02-21T17:08:15;9.20;83.00
52963;DHT22;38827;53.024;6.596;2024-02-21T17:10:40;9.20;83.20
52963;DHT22;38827;53.024;6.596;2024-02-21T17:13:15;9.20;83.30
52963;DHT22;38827;53.024;6.596;2024-02-21T17:16:08;9.20;83.40
52963;DHT22;38827;53.024;6.596;2024-02-21T17:18:48;9.10;83.60
52963;DHT22;38827;53.024;6.596;2024-02-21T17:21:32;9.10;83.80
52963;DHT22;38827;53.024;6.596;2024-02-21T17:23:58;9.10;83.90
52963;DHT22;38827;53.024;6.596;2024-02-21T17:29:11;9.00;84.60
52963;DHT22;38827;53.024;6.596;2024-02-21T17:31:42;9.00;84.80
52963;DHT22;38827;53.024;6.596;2024-02-21T17:34:21;9.00;85.10
52963;DHT22;38827;53.024;6.596;2024-02-21T17:36:46;8.90;85.20
52963;DHT22;38827;53.024;6.596;2024-02-21T17:39:13;8.90;85.50
52963;DHT22;38827;53.024;6.596;2024-02-21T17:41:39;8.90;85.70
52963;DHT22;38827;53.024;6.596;2024-02-21T17:44:05;8.90;85.90
52963;DHT22;38827;53.024;6.596;2024-02-21T17:46:30;8.90;86.10
52963;DHT22;38827;53.024;6.596;2024-02-21T17:48:56;8.90;86.10
52963;DHT22;38827;53.024;6.596;2024-02-21T17:51:22;8.90;86.10
52963;DHT22;38827;53.024;6.596;2024-02-21T17:53:47;8.90;86.40
52963;DHT22;38827;53.024;6.596;2024-02-21T17:56:13;8.90;86.40
52963;DHT22;38827;53.024;6.596;2024-02-21T17:58:39;8.80;86.50
52963;DHT22;38827;53.024;6.596;2024-02-21T18:01:04;8.80;86.70
52963;DHT22;38827;53.024;6.596;2024-02-21T18:03:30;8.80;86.80
52963;DHT22;38827;53.024;6.596;2024-02-21T18:06:00;8.80;86.90
52963;DHT22;38827;53.024;6.596;2024-02-21T18:08:28;8.80;87.10
52963;DHT22;38827;53.024;6.596;2024-02-21T18:10:55;8.80;87.40
52963;DHT22;38827;53.024;6.596;2024-02-21T18:13:21;8.80;87.30
52963;DHT22;38827;53.024;6.596;2024-02-21T18:15:47;8.80;87.30
52963;DHT22;38827;53.024;6.596;2024-02-21T18:18:16;8.70;87.40
52963;DHT22;38827;53.024;6.596;2024-02-21T18:20:41;8.70;87.50
52963;DHT22;38827;53.024;6.596;2024-02-21T18:23:07;8.70;87.70
52963;DHT22;38827;53.024;6.596;2024-02-21T18:25:37;8.70;87.90
52963;DHT22;38827;53.024;6.596;2024-02-21T18:28:02;8.70;87.90
52963;DHT22;38827;53.024;6.596;2024-02-21T18:30:29;8.70;88.00
52963;DHT22;38827;53.024;6.596;2024-02-21T18:32:54;8.70;88.00
52963;DHT22;38827;53.024;6.596;2024-02-21T18:35:20;8.70;88.20
52963;DHT22;38827;53.024;6.596;2024-02-21T18:37:47;8.70;88.30
52963;DHT22;38827;53.024;6.596;2024-02-21T18:40:14;8.70;88.30
52963;DHT22;38827;53.024;6.596;2024-02-21T18:42:41;8.70;88.40
52963;DHT22;38827;53.024;6.596;2024-02-21T18:45:07;8.70;88.60
52963;DHT22;38827;53.024;6.596;2024-02-21T18:47:34;8.70;88.70
52963;DHT22;38827;53.024;6.596;2024-02-21T18:50:00;8.70;88.60
52963;DHT22;38827;53.024;6.596;2024-02-21T18:52:26;8.70;88.80
52963;DHT22;38827;53.024;6.596;2024-02-21T18:54:52;8.70;89.20
52963;DHT22;38827;53.024;6.596;2024-02-21T18:57:18;8.60;89.20
52963;DHT22;38827;53.024;6.596;2024-02-21T18:59:44;8.60;89.20
52963;DHT22;38827;53.024;6.596;2024-02-21T19:02:10;8.60;89.30
52963;DHT22;38827;53.024;6.596;2024-02-21T19:04:35;8.60;89.50
52963;DHT22;38827;53.024;6.596;2024-02-21T19:07:03;8.60;89.50
52963;DHT22;38827;53.024;6.596;2024-02-21T19:09:29;8.60;89.50
52963;DHT22;38827;53.024;6.596;2024-02-21T19:11:54;8.60;89.60
52963;DHT22;38827;53.024;6.596;2024-02-21T19:14:20;8.60;89.60
52963;DHT22;38827;53.024;6.596;2024-02-21T19:16:46;8.60;89.70
52963;DHT22;38827;53.024;6.596;2024-02-21T19:19:50;8.60;89.80
52963;DHT22;38827;53.024;6.596;2024-02-21T19:26:50;8.60;89.90
52963;DHT22;38827;53.024;6.596;2024-02-21T19:35:07;8.60;90.70
52963;DHT22;38827;53.024;6.596;2024-02-21T19:46:54;8.60;90.40
52963;DHT22;38827;53.024;6.596;2024-02-21T19:53:27;8.60;90.30
52963;DHT22;38827;53.024;6.596;2024-02-21T19:56:14;8.60;90.70
52963;DHT22;38827;53.024;6.596;2024-02-21T19:58:50;8.60;90.90
52963;DHT22;38827;53.024;6.596;2024-02-21T20:01:34;8.60;90.80
52963;DHT22;38827;53.024;6.596;2024-02-21T20:04:03;8.60;90.80
52963;DHT22;38827;53.024;6.596;2024-02-21T20:09:20;8.60;91.10
52963;DHT22;38827;53.024;6.596;2024-02-21T20:25:12;8.50;92.00
52963;DHT22;38827;53.024;6.596;2024-02-21T20:28:09;8.60;91.90
52963;DHT22;38827;53.024;6.596;2024-02-21T20:34:46;8.60;91.80
52963;DHT22;38827;53.024;6.596;2024-02-21T20:40:48;8.50;92.20
52963;DHT22;38827;53.024;6.596;2024-02-21T20:46:26;8.60;92.20
52963;DHT22;38827;53.024;6.596;2024-02-21T20:52:14;8.60;92.20
52963;DHT22;38827;53.024;6.596;2024-02-21T20:58:21;8.60;92.30
52963;DHT22;38827;53.024;6.596;2024-02-21T21:00:53;8.60;92.80
52963;DHT22;38827;53.024;6.596;2024-02-21T21:06:32;8.60;92.50
52963;DHT22;38827;53.024;6.596;2024-02-21T21:12:57;8.60;92.70
52963;DHT22;38827;53.024;6.596;2024-02-21T21:26:19;8.60;93.10
52963;DHT22;38827;53.024;6.596;2024-02-21T21:32:07;8.70;93.30
52963;DHT22;38827;53.024;6.596;2024-02-21T21:34:55;8.60;93.40
52963;DHT22;38827;53.024;6.596;2024-02-21T21:42:19;8.70;93.50
52963;DHT22;38827;53.024;6.596;2024-02-21T21:44:57;8.70;93.80
52963;DHT22;38827;53.024;6.596;2024-02-21T21:47:45;8.70;93.70
52963;DHT22;38827;53.024;6.596;2024-02-21T21:50:36;8.70;93.70
52963;DHT22;38827;53.024;6.596;2024-02-21T21:53:08;8.70;93.50
52963;DHT22;38827;53.024;6.596;2024-02-21T21:55:37;8.70;93.80
52963;DHT22;38827;53.024;6.596;2024-02-21T21:58:10;8.70;93.70
52963;DHT22;38827;53.024;6.596;2024-02-21T22:00:45;8.70;93.80
52963;DHT22;38827;53.024;6.596;2024-02-21T22:03:33;8.70;93.90
52963;DHT22;38827;53.024;6.596;2024-02-21T22:06:04;8.80;94.00
52963;DHT22;38827;53.024;6.596;2024-02-21T22:08:52;8.80;93.90
52963;DHT22;38827;53.024;6.596;2024-02-21T22:11:17;8.70;94.00
52963;DHT22;38827;53.024;6.596;2024-02-21T22:14:04;8.70;94.20
52963;DHT22;38827;53.024;6.596;2024-02-21T22:16:30;8.80;94.10
52963;DHT22;38827;53.024;6.596;2024-02-21T22:18:55;8.80;94.30
52963;DHT22;38827;53.024;6.596;2024-02-21T22:21:21;8.80;94.30
52963;DHT22;38827;53.024;6.596;2024-02-21T22:23:47;8.80;94.30
52963;DHT22;38827;53.024;6.596;2024-02-21T22:26:12;8.80;94.30
52963;DHT22;38827;53.024;6.596;2024-02-21T22:28:41;8.80;94.30
52963;DHT22;38827;53.024;6.596;2024-02-21T22:31:06;8.80;94.40
52963;DHT22;38827;53.024;6.596;2024-02-21T22:33:34;8.80;94.40
52963;DHT22;38827;53.024;6.596;2024-02-21T22:36:00;8.80;94.40
52963;DHT22;38827;53.024;6.596;2024-02-21T22:38:26;8.80;94.50
52963;DHT22;38827;53.024;6.596;2024-02-21T22:40:51;8.80;94.60
52963;DHT22;38827;53.024;6.596;2024-02-21T22:43:20;8.80;94.60
52963;DHT22;38827;53.024;6.596;2024-02-21T22:45:46;8.80;94.70
52963;DHT22;38827;53.024;6.596;2024-02-21T22:48:13;8.80;94.70
52963;DHT22;38827;53.024;6.596;2024-02-21T22:50:38;8.90;94.80
52963;DHT22;38827;53.024;6.596;2024-02-21T22:53:05;8.90;94.80
52963;DHT22;38827;53.024;6.596;2024-02-21T22:55:33;8.90;94.90
52963;DHT22;38827;53.024;6.596;2024-02-21T22:57:59;8.90;94.80
52963;DHT22;38827;53.024;6.596;2024-02-21T23:00:29;8.90;94.90
52963;DHT22;38827;53.024;6.596;2024-02-21T23:02:54;8.90;94.70
52963;DHT22;38827;53.024;6.596;2024-02-21T23:05:21;8.90;94.80
52963;DHT22;38827;53.024;6.596;2024-02-21T23:07:51;8.90;95.30
52963;DHT22;38827;53.024;6.596;2024-02-21T23:10:21;8.90;95.10
52963;DHT22;38827;53.024;6.596;2024-02-21T23:12:51;8.90;94.90
52963;DHT22;38827;53.024;6.596;2024-02-21T23:15:17;8.90;94.90
52963;DHT22;38827;53.024;6.596;2024-02-21T23:17:43;8.90;94.80
52963;DHT22;38827;53.024;6.596;2024-02-21T23:20:09;8.90;95.00
52963;DHT22;38827;53.024;6.596;2024-02-21T23:22:36;9.00;94.90
52963;DHT22;38827;53.024;6.596;2024-02-21T23:25:01;9.00;95.20
52963;DHT22;38827;53.024;6.596;2024-02-21T23:27:27;9.00;95.20
52963;DHT22;38827;53.024;6.596;2024-02-21T23:29:54;9.00;95.10
52963;DHT22;38827;53.024;6.596;2024-02-21T23:32:21;9.00;95.10
52963;DHT22;38827;53.024;6.596;2024-02-21T23:34:47;9.00;95.10
52963;DHT22;38827;53.024;6.596;2024-02-21T23:37:12;9.00;95.30
52963;DHT22;38827;53.024;6.596;2024-02-21T23:39:38;9.00;95.40
52963;DHT22;38827;53.024;6.596;2024-02-21T23:42:04;9.00;95.40
52963;DHT22;38827;53.024;6.596;2024-02-21T23:44:30;9.00;95.20
52963;DHT22;38827;53.024;6.596;2024-02-21T23:46:56;9.00;95.50
52963;DHT22;38827;53.024;6.596;2024-02-21T23:49:22;9.10;95.50
52963;DHT22;38827;53.024;6.596;2024-02-21T23:51:52;9.10;95.40
52963;DHT22;38827;53.024;6.596;2024-02-21T23:54:18;9.10;95.50
52963;DHT22;38827;53.024;6.596;2024-02-21T23:56:44;9.10;95.50
52963;DHT22;38827;53.024;6.596;2024-02-21T23:59:13;9.10;95.70
